Latest Weather Observations for Warburto Point

IDS60801

Issued at 3:51 pm CST Saturday 4 July 2020 (issued every 10 minutes, with the page automatically refreshed every 10 minutes)

About weather observations | Map of weather stations | Latest weather observations for SA | Other Formats
Station Details ID: 022053 Name: WARBURTO POINT Lat: -34.00 Lon: 137.53 Height: 1.0 m
Data from the previous 72 hours. | See also: Recent months at Warburto Point
Date/Time
CST
Temp
°C
App
Temp
°C
Dew
Point
°C
Rel
Hum
%
Delta-T
°C
Wind Press
QNH
hPa
Press
MSL
hPa
Rain since
9am
mm
Dir  Spd
km/h
Gust
km/h
Spd
kts
Gust
kts
04/03:30pm - - - - - WSW 20 30 11 16 - - -
04/03:00pm - - - - - W 17 22 9 12 - - -
04/02:30pm - - - - - WNW 13 15 7 8 - - -
04/02:00pm - - - - - W 13 17 7 9 - - -
04/01:30pm - - - - - WNW 11 13 6 7 - - -
04/01:00pm - - - - - WNW 11 13 6 7 - - -
04/12:30pm - - - - - W 13 15 7 8 - - -
04/12:00pm - - - - - WNW 11 15 6 8 - - -
04/11:30am - - - - - NW 9 11 5 6 - - -
04/11:00am - - - - - NNW 9 11 5 6 - - -
04/10:30am - - - - - NW 9 11 5 6 - - -
04/10:00am - - - - - SSE 7 9 4 5 - - -
04/09:30am - - - - - ESE 6 7 3 4 - - -
04/09:00am - - - - - CALM 0 7 0 4 - - -
04/08:30am - - - - - WSW 7 11 4 6 - - -
04/08:00am - - - - - WSW 9 9 5 5 - - -
04/07:30am - - - - - WSW 9 11 5 6 - - -
04/07:00am - - - - - SW 9 9 5 5 - - -
04/06:30am - - - - - SSE 6 9 3 5 - - -
04/06:00am - - - - - CALM 0 0 0 0 - - -
04/05:30am - - - - - CALM 0 0 0 0 - - -
04/05:00am - - - - - SSE 7 11 4 6 - - -
04/04:30am - - - - - S 9 11 5 6 - - -
04/04:00am - - - - - S 9 13 5 7 - - -
04/03:30am - - - - - S 11 13 6 7 - - -
04/03:00am - - - - - SSW 13 17 7 9 - - -
04/02:30am - - - - - SSE 15 19 8 10 - - -
04/02:00am - - - - - S 20 28 11 15 - - -
04/01:30am - - - - - SSE 15 19 8 10 - - -
04/01:00am - - - - - SSE 13 15 7 8 - - -
04/12:30am - - - - - SSE 17 20 9 11 - - -
04/12:00am - - - - - S 19 22 10 12 - - -
 
Date/Time
CST
Temp
°C
App
Temp
°C
Dew
Point
°C
Rel
Hum
%
Delta-T
°C
Wind Press
QNH
hPa
Press
MSL
hPa
Rain since
9am
mm
Dir  Spd
km/h
Gust
km/h
Spd
kts
Gust
kts
03/11:30pm - - - - - SSE 17 19 9 10 - - -
03/11:00pm - - - - - S 15 19 8 10 - - -
03/10:30pm - - - - - S 15 17 8 9 - - -
03/10:00pm - - - - - SSE 17 22 9 12 - - -
03/09:30pm - - - - - S 15 19 8 10 - - -
03/09:00pm - - - - - SSE 17 20 9 11 - - -
03/08:30pm - - - - - S 19 22 10 12 - - -
03/08:00pm - - - - - S 22 30 12 16 - - -
03/07:30pm - - - - - SSE 17 20 9 11 - - -
03/07:00pm - - - - - SSW 28 37 15 20 - - -
03/06:30pm - - - - - SSW 26 32 14 17 - - -
03/06:00pm - - - - - S 24 32 13 17 - - -
03/05:30pm - - - - - SSW 26 33 14 18 - - -
03/05:00pm - - - - - SSW 30 37 16 20 - - -
03/04:30pm - - - - - SSW 28 35 15 19 - - -
03/04:00pm - - - - - SSW 26 32 14 17 - - -
03/03:30pm - - - - - SW 39 50 21 27 - - -
03/03:00pm - - - - - SSW 30 37 16 20 - - -
03/02:30pm - - - - - SW 39 52 21 28 - - -
03/02:00pm - - - - - SSW 32 37 17 20 - - -
03/01:30pm - - - - - SW 30 37 16 20 - - -
03/01:00pm - - - - - SSW 32 39 17 21 - - -
03/12:30pm - - - - - SW 32 41 17 22 - - -
03/12:00pm - - - - - WSW 32 37 17 20 - - -
03/11:30am - - - - - WSW 30 39 16 21 - - -
03/11:00am - - - - - W 30 37 16 20 - - -
03/10:31am - - - - - W 33 52 18 28 - - -
03/10:30am - - - - - W 33 46 18 25 - - -
03/10:00am - - - - - W 32 39 17 21 - - -
03/09:30am - - - - - W 32 41 17 22 - - -
03/09:00am - - - - - W 33 41 18 22 - - -
03/08:30am - - - - - W 32 44 17 24 - - -
03/08:00am - - - - - WNW 32 39 17 21 - - -
03/07:30am - - - - - WNW 26 33 14 18 - - -
03/07:00am - - - - - WNW 28 33 15 18 - - -
03/06:30am - - - - - WNW 30 35 16 19 - - -
03/06:00am - - - - - WNW 28 35 15 19 - - -
03/05:30am - - - - - WNW 30 37 16 20 - - -
03/05:00am - - - - - WNW 28 35 15 19 - - -
03/04:30am - - - - - WNW 30 35 16 19 - - -
03/04:00am - - - - - WNW 28 33 15 18 - - -
03/03:30am - - - - - WNW 30 37 16 20 - - -
03/03:00am - - - - - WNW 28 37 15 20 - - -
03/02:30am - - - - - WNW 30 35 16 19 - - -
03/02:00am - - - - - WNW 30 35 16 19 - - -
03/01:30am - - - - - WNW 26 35 14 19 - - -
03/01:00am - - - - - WNW 26 33 14 18 - - -
03/12:30am - - - - - WNW 26 32 14 17 - - -
03/12:00am - - - - - WNW 26 32 14 17 - - -
 
Date/Time
CST
Temp
°C
App
Temp
°C
Dew
Point
°C
Rel
Hum
%
Delta-T
°C
Wind Press
QNH
hPa
Press
MSL
hPa
Rain since
9am
mm
Dir  Spd
km/h
Gust
km/h
Spd
kts
Gust
kts
02/11:30pm - - - - - WNW 22 32 12 17 - - -
02/11:00pm - - - - - WNW 22 30 12 16 - - -
02/10:30pm - - - - - WNW 20 26 11 14 - - -
02/10:00pm - - - - - W 20 28 11 15 - - -
02/09:30pm - - - - - W 22 28 12 15 - - -
02/09:00pm - - - - - W 20 28 11 15 - - -
02/08:30pm - - - - - W 22 28 12 15 - - -
02/08:00pm - - - - - WSW 22 30 12 16 - - -
02/07:30pm - - - - - WSW 20 28 11 15 - - -
02/07:00pm - - - - - WSW 17 19 9 10 - - -
02/06:30pm - - - - - WSW 15 17 8 9 - - -
02/06:00pm - - - - - WSW 15 19 8 10 - - -
02/05:30pm - - - - - WSW 15 17 8 9 - - -
02/05:00pm - - - - - W 17 20 9 11 - - -
02/04:30pm - - - - - W 20 26 11 14 - - -
02/04:00pm - - - - - WSW 22 28 12 15 - - -
02/03:30pm - - - - - W 22 30 12 16 - - -
02/03:00pm - - - - - W 24 30 13 16 - - -
02/02:30pm - - - - - W 28 35 15 19 - - -
02/02:00pm - - - - - W 28 35 15 19 - - -
02/01:30pm - - - - - W 30 35 16 19 - - -
02/01:00pm - - - - - W 32 39 17 21 - - -
02/12:30pm - - - - - W 30 37 16 20 - - -
02/12:00pm - - - - - W 30 37 16 20 - - -
02/11:30am - - - - - W 28 35 15 19 - - -
02/11:00am - - - - - WNW 28 35 15 19 - - -
02/10:30am - - - - - WNW 30 35 16 19 - - -
02/10:00am - - - - - W 32 35 17 19 - - -
02/09:30am - - - - - WNW 28 33 15 18 - - -
02/09:00am - - - - - WNW 28 33 15 18 - - -
02/08:30am - - - - - WNW 28 35 15 19 - - -
02/08:00am - - - - - WNW 30 35 16 19 - - -
02/07:30am - - - - - W 28 35 15 19 - - -
02/07:00am - - - - - WNW 28 35 15 19 - - -
02/06:30am - - - - - W 26 35 14 19 - - -
02/06:00am - - - - - W 32 37 17 20 - - -
02/05:30am - - - - - WNW 30 35 16 19 - - -
02/05:00am - - - - - W 30 37 16 20 - - -
02/04:30am - - - - - W 32 39 17 21 - - -
02/04:00am - - - - - WNW 28 35 15 19 - - -
02/03:30am - - - - - WNW 30 37 16 20 - - -
02/03:00am - - - - - WNW 32 37 17 20 - - -
02/02:30am - - - - - WNW 28 33 15 18 - - -
02/02:00am - - - - - WNW 26 32 14 17 - - -
02/01:30am - - - - - WNW 26 32 14 17 - - -
02/12:30am - - - - - W 32 41 17 22 - - -
02/12:00am - - - - - W 30 37 16 20 - - -
 
Date/Time
CST
Temp
°C
App
Temp
°C
Dew
Point
°C
Rel
Hum
%
Delta-T
°C
Wind Press
QNH
hPa
Press
MSL
hPa
Rain since
9am
mm
Dir  Spd
km/h
Gust
km/h
Spd
kts
Gust
kts
01/11:30pm - - - - - WNW 30 39 16 21 - - -
01/11:00pm - - - - - W 32 39 17 21 - - -
01/10:30pm - - - - - W 33 41 18 22 - - -
01/10:00pm - - - - - W 35 44 19 24 - - -
01/09:30pm - - - - - W 32 39 17 21 - - -
01/09:00pm - - - - - W 39 50 21 27 - - -
01/08:30pm - - - - - W 43 54 23 29 - - -
01/08:00pm - - - - - WNW 39 48 21 26 - - -
01/07:30pm - - - - - WNW 35 44 19 24 - - -
01/07:00pm - - - - - WNW 37 48 20 26 - - -
01/06:30pm - - - - - WNW 39 50 21 27 - - -
01/06:00pm - - - - - WNW 39 50 21 27 - - -
01/05:30pm - - - - - W 46 59 25 32 - - -
01/05:00pm - - - - - W 46 59 25 32 - - -
01/04:30pm - - - - - W 41 56 22 30 - - -
01/04:00pm - - - - - W 48 74 26 40 - - -
01/03:57pm - - - - - W 43 74 23 40 - - -
01/03:55pm - - - - - W 39 74 21 40 - - -
01/03:53pm - - - - - W 33 56 18 30 - - -

Other formats

Comma delimited format used in spreadsheet applications
http://www.bom.gov.au/fwo/IDS60801/IDS60801.94666.axf

JavaScript Object Notation format (JSON) in row-major order
http://www.bom.gov.au/fwo/IDS60801/IDS60801.94666.json

Data quality

Most of these data are generated automatically and are frequently updated. Quality checks on data are not normally performed. It is possible for incorrect values to appear. Refer to information at About Latest Weather Observations and please check the disclaimer before using these data.